Time;durP1;ratioP1;P1;durP2;ratioP2;P2;SDS_P1;SDS_P2;PMS_P1;PMS_P2;Temp;Humidity;BMP_temperature;BMP_pressure;BME280_temperature;BME280_humidity;BME280_pressure;Samples;Min_cycle;Max_cycle;Signal;HPM_P1;HPM_P2
2023/11/03 00:02:10;;;;;;;0.60;0.60;;;;;;;9.78;95.38;93183.59;6124595;23;20195;-87
2023/11/03 00:04:39;;;;;;;0.60;0.60;;;;;;;9.82;95.52;93210.38;6126832;23;20162;-86
2023/11/03 00:07:16;;;;;;;0.70;0.70;;;;;;;9.79;95.00;93183.38;6126007;23;20172;-87
2023/11/03 00:09:58;;;;;;;0.90;0.80;;;;;;;9.70;96.48;93146.22;6126266;23;20427;-87
2023/11/03 00:12:35;;;;;;;0.80;0.70;;;;;;;9.69;97.48;93130.00;6126186;23;20222;-86
2023/11/03 00:15:20;;;;;;;0.80;0.80;;;;;;;9.68;98.62;93138.72;6127648;23;20797;-86
2023/11/03 00:23:54;;;;;;;0.70;0.70;;;;;;;9.51;98.74;93147.41;6132954;23;20199;-88
2023/11/03 00:26:40;;;;;;;1.00;0.70;;;;;;;9.33;100.00;93174.81;6134714;23;20175;-86
2023/11/03 00:29:24;;;;;;;0.80;0.80;;;;;;;9.30;100.00;93180.41;6134912;23;20179;-88
2023/11/03 00:32:03;;;;;;;0.83;0.70;;;;;;;9.28;100.00;93222.72;6133579;23;20255;-89
2023/11/03 00:34:46;;;;;;;1.47;0.73;;;;;;;9.30;100.00;93251.50;6134119;23;20227;-87
2023/11/03 00:37:23;;;;;;;0.70;0.70;;;;;;;9.37;100.00;93234.22;6135074;23;20238;-88
2023/11/03 00:40:04;;;;;;;0.77;0.60;;;;;;;9.38;99.57;93206.75;6135557;23;20167;-88
2023/11/03 00:43:00;;;;;;;2.43;0.50;;;;;;;9.42;98.74;93184.75;6135185;23;20218;-86
2023/11/03 00:46:04;;;;;;;0.70;0.70;;;;;;;9.48;98.35;93142.72;6118863;23;20563;-88
2023/11/03 00:51:22;;;;;;;0.60;0.60;;;;;;;9.45;98.06;93149.09;6118248;23;20199;-87
2023/11/03 00:57:12;;;;;;;0.70;0.70;;;;;;;9.53;98.24;93199.31;6114510;23;20337;-89
2023/11/03 00:59:39;;;;;;;0.80;0.80;;;;;;;9.59;98.95;93227.47;6135951;23;20164;-86
2023/11/03 01:02:26;;;;;;;0.63;0.63;;;;;;;9.65;97.48;93223.97;6131599;23;20195;-89
2023/11/03 01:04:57;;;;;;;0.70;0.70;;;;;;;9.70;96.95;93195.81;6124126;23;20256;-87
2023/11/03 01:07:28;;;;;;;0.60;0.60;;;;;;;9.71;96.45;93186.31;6135769;23;20171;-87
2023/11/03 01:09:56;;;;;;;0.60;0.60;;;;;;;9.76;95.76;93168.41;6135360;23;20761;-88
2023/11/03 01:12:53;;;;;;;0.80;0.80;;;;;;;9.76;95.94;93178.69;6134674;23;20246;-86
2023/11/03 01:15:22;;;;;;;0.67;0.60;;;;;;;9.74;95.49;93179.94;6096584;23;20175;-88
2023/11/03 01:17:50;;;;;;;1.60;0.63;;;;;;;9.78;95.37;93184.38;6134596;23;20176;-86
2023/11/03 01:20:36;;;;;;;1.70;0.63;;;;;;;9.80;95.64;93171.31;6133734;23;20182;-87
2023/11/03 01:23:13;;;;;;;0.50;0.50;;;;;;;9.84;95.28;93188.59;6133865;23;20328;-87
2023/11/03 01:25:45;;;;;;;0.60;0.60;;;;;;;9.84;93.95;93157.75;6134813;23;20167;-87
2023/11/03 01:28:14;;;;;;;0.53;0.53;;;;;;;9.82;94.51;93149.50;6132004;23;20271;-85
2023/11/03 01:30:52;;;;;;;0.60;0.60;;;;;;;9.80;94.69;93179.03;6124914;23;20179;-86
2023/11/03 01:33:22;;;;;;;0.60;0.60;;;;;;;9.83;95.19;93186.25;6124799;23;20186;-87
2023/11/03 01:35:51;;;;;;;0.60;0.60;;;;;;;9.86;95.12;93155.72;6125471;23;20686;-87
2023/11/03 01:38:21;;;;;;;0.50;0.50;;;;;;;9.93;95.42;93138.38;6125713;23;20259;-86
2023/11/03 01:41:02;;;;;;;1.10;0.83;;;;;;;9.93;95.84;93124.75;6126504;23;20203;-85
2023/11/03 01:43:36;;;;;;;1.10;0.93;;;;;;;9.88;97.38;93130.59;6125999;23;20195;-87
2023/11/03 01:46:09;;;;;;;3.70;2.50;;;;;;;9.96;98.75;93148.22;6125244;23;20156;-85
2023/11/03 01:48:41;;;;;;;1.30;1.20;;;;;;;10.05;98.28;93148.59;6125637;23;20164;-86
2023/11/03 01:51:16;;;;;;;2.80;0.90;;;;;;;10.07;96.98;93118.28;6126396;23;20203;-86
2023/11/03 01:53:45;;;;;;;1.00;0.80;;;;;;;10.05;96.54;93105.66;6125796;23;20165;-87
2023/11/03 01:59:33;;;;;;;1.00;0.70;;;;;;;9.97;96.19;93131.00;6081521;23;20191;-86
2023/11/03 02:02:01;;;;;;;0.70;0.70;;;;;;;9.95;95.98;93128.66;6124995;23;20203;-86
2023/11/03 02:07:44;;;;;;;0.80;0.80;;;;;;;10.00;96.10;93151.09;6071840;23;20558;-87
2023/11/03 02:10:19;;;;;;;0.87;0.80;;;;;;;9.99;95.30;93147.75;6124788;23;20152;-86
2023/11/03 02:13:06;;;;;;;1.90;0.80;;;;;;;9.96;95.48;93148.22;6128310;23;20195;-86
2023/11/03 02:15:33;;;;;;;1.17;1.07;;;;;;;9.94;95.16;93147.66;6123621;23;20164;-85
2023/11/03 02:18:00;;;;;;;1.30;1.20;;;;;;;9.94;94.75;93116.03;6124242;23;20175;-87
2023/11/03 02:20:30;;;;;;;1.40;1.10;;;;;;;9.96;94.99;93111.44;6123564;23;20179;-87
2023/11/03 02:22:58;;;;;;;1.13;1.00;;;;;;;9.95;94.95;93099.59;6123188;23;20179;-86
2023/11/03 02:25:30;;;;;;;3.20;1.20;;;;;;;9.96;94.78;93101.16;6123921;23;20195;-85
2023/11/03 02:27:58;;;;;;;1.47;1.10;;;;;;;9.95;95.09;93104.75;6123420;23;20243;-86
2023/11/03 02:30:27;;;;;;;1.27;1.10;;;;;;;9.94;94.96;93101.41;6124038;23;20195;-85
2023/11/03 02:32:58;;;;;;;3.47;1.40;;;;;;;9.97;94.57;93095.00;6123889;23;20457;-86
2023/11/03 02:35:25;;;;;;;1.10;0.90;;;;;;;9.98;94.53;93097.34;6123395;23;20163;-85
2023/11/03 02:37:51;;;;;;;1.67;1.00;;;;;;;9.98;94.39;93091.44;6123822;23;20182;-86
2023/11/03 02:40:19;;;;;;;2.20;1.10;;;;;;;9.96;95.13;93093.44;6123922;23;20206;-86
2023/11/03 02:42:51;;;;;;;1.10;1.00;;;;;;;10.00;95.16;93089.41;6123612;23;20293;-86
2023/11/03 02:45:37;;;;;;;1.13;1.00;;;;;;;9.99;94.54;93075.00;6123545;23;20632;-86
2023/11/03 02:48:07;;;;;;;1.43;1.13;;;;;;;9.88;96.63;93086.91;6124097;23;20159;-86
2023/11/03 02:50:33;;;;;;;1.53;0.87;;;;;;;9.94;96.38;93088.53;6123783;23;20710;-85
2023/11/03 02:52:59;;;;;;;2.67;1.00;;;;;;;9.97;95.56;93071.88;6124101;23;20230;-86
2023/11/03 02:56:00;;;;;;;2.53;1.10;;;;;;;9.99;94.76;93062.16;6123968;23;20683;-87
2023/11/03 02:58:33;;;;;;;0.70;0.70;;;;;;;10.02;93.96;93046.22;6114362;23;20179;-86
2023/11/03 03:01:06;;;;;;;4.20;1.20;;;;;;;10.00;93.35;93033.66;6123666;23;20199;-86
2023/11/03 03:03:39;;;;;;;0.80;0.80;;;;;;;9.98;92.81;93033.09;6124524;23;20243;-88
2023/11/03 03:06:08;;;;;;;0.97;0.83;;;;;;;10.01;93.13;93044.69;6124273;23;20160;-86
2023/11/03 03:08:36;;;;;;;2.60;1.00;;;;;;;10.00;93.08;93050.84;6124546;23;20238;-87
2023/11/03 03:13:50;;;;;;;0.80;0.80;;;;;;;9.99;93.11;93054.44;6119118;23;20175;-87
2023/11/03 03:16:24;;;;;;;1.23;0.90;;;;;;;9.98;92.82;93051.09;6123701;23;20172;-87
2023/11/03 03:19:05;;;;;;;1.20;0.77;;;;;;;9.96;92.08;93026.63;6123747;23;20246;-86
2023/11/03 03:21:36;;;;;;;1.57;1.00;;;;;;;9.99;92.62;93024.38;6123049;23;20825;-85
2023/11/03 03:24:06;;;;;;;0.90;0.80;;;;;;;9.98;92.53;93022.81;6123018;23;20215;-86
2023/11/03 03:26:44;;;;;;;2.00;1.07;;;;;;;9.94;92.34;93020.94;6123539;23;20180;-86
2023/11/03 03:29:18;;;;;;;1.80;1.20;;;;;;;9.89;93.67;93026.78;6123675;23;20632;-85
2023/11/03 03:37:19;;;;;;;3.00;0.93;;;;;;;9.88;94.39;93050.16;6123793;23;20183;-85
2023/11/03 03:40:21;;;;;;;1.90;1.17;;;;;;;9.90;93.92;93043.75;6118518;23;20242;-85
2023/11/03 03:42:51;;;;;;;1.83;1.00;;;;;;;9.92;93.50;93033.25;6123056;23;20586;-85
2023/11/03 03:45:43;;;;;;;1.93;1.03;;;;;;;9.90;92.65;93019.84;6123747;23;20238;-86
2023/11/03 03:48:13;;;;;;;2.30;0.90;;;;;;;9.91;92.72;93021.41;6125951;23;20171;-86
2023/11/03 03:50:47;;;;;;;2.97;1.00;;;;;;;9.91;93.03;93026.56;6125336;23;20188;-85
2023/11/03 03:53:18;;;;;;;1.63;1.13;;;;;;;9.91;93.73;93034.25;6122701;23;20175;-85
2023/11/03 03:55:51;;;;;;;1.20;1.03;;;;;;;9.86;94.54;93045.22;6125244;23;20176;-86
2023/11/03 03:58:24;;;;;;;1.30;1.17;;;;;;;9.87;94.55;93057.06;6125738;23;20159;-87
2023/11/03 04:00:52;;;;;;;2.50;1.10;;;;;;;9.85;93.33;93050.59;6124619;23;20195;-88
2023/11/03 04:03:19;;;;;;;3.67;1.20;;;;;;;9.85;92.40;93033.41;6124640;23;20215;-87
2023/11/03 04:05:46;;;;;;;2.23;1.20;;;;;;;9.81;92.54;93036.69;6125254;23;20259;-86
2023/11/03 04:08:14;;;;;;;2.50;0.93;;;;;;;9.80;92.39;93030.78;6125171;23;20218;-86
2023/11/03 04:10:41;;;;;;;2.27;1.10;;;;;;;9.81;92.27;93022.06;6126309;23;20186;-87
2023/11/03 04:13:07;;;;;;;3.73;1.10;;;;;;;9.77;91.83;93017.63;6126130;23;20190;-86
2023/11/03 04:15:33;;;;;;;1.30;0.93;;;;;;;9.80;92.15;93024.84;6125598;23;20160;-87
2023/11/03 04:18:05;;;;;;;2.53;1.30;;;;;;;9.80;92.48;93046.19;6125773;23;20183;-87
2023/11/03 04:20:31;;;;;;;1.60;1.00;;;;;;;9.80;92.05;93030.00;6125081;23;20160;-86
2023/11/03 04:23:00;;;;;;;1.60;1.20;;;;;;;9.79;93.23;93047.19;6125545;23;20175;-87
2023/11/03 04:25:29;;;;;;;2.43;1.30;;;;;;;9.85;93.10;93040.31;6125512;23;20199;-88
2023/11/03 04:27:55;;;;;;;2.27;1.13;;;;;;;9.88;92.37;93027.00;6125922;23;20218;-88
2023/11/03 04:30:22;;;;;;;3.43;1.20;;;;;;;9.83;91.16;92999.44;6125151;23;20543;-87
2023/11/03 04:32:48;;;;;;;1.57;1.00;;;;;;;9.76;91.57;92998.06;6126111;23;20203;-88
2023/11/03 04:35:16;;;;;;;3.67;1.40;;;;;;;9.75;92.73;93022.97;6125894;23;20516;-87
2023/11/03 04:37:43;;;;;;;1.77;1.10;;;;;;;9.75;92.79;93022.97;6125277;23;20191;-88
2023/11/03 04:40:11;;;;;;;3.07;1.10;;;;;;;9.74;91.63;93003.44;6124694;23;20235;-86
2023/11/03 04:42:37;;;;;;;1.67;1.30;;;;;;;9.76;91.40;93009.13;6125418;23;20527;-86
2023/11/03 04:45:04;;;;;;;1.83;1.00;;;;;;;9.75;90.47;92979.31;6125409;23;20206;-88
2023/11/03 04:47:30;;;;;;;2.83;1.10;;;;;;;9.66;90.50;92978.13;6125131;23;20182;-87
2023/11/03 04:49:57;;;;;;;3.23;1.10;;;;;;;9.68;91.21;92982.03;6125485;23;20648;-86
2023/11/03 04:52:25;;;;;;;3.23;1.10;;;;;;;9.64;93.51;93000.69;6124340;23;20196;-86
2023/11/03 04:54:51;;;;;;;2.00;1.10;;;;;;;9.61;93.96;93014.03;6124740;23;20515;-86
2023/11/03 04:57:20;;;;;;;3.13;1.30;;;;;;;9.61;93.30;93008.91;6123876;23;20180;-85
2023/11/03 04:59:46;;;;;;;2.30;1.17;;;;;;;9.63;92.21;93006.84;6124697;23;20230;-86
2023/11/03 05:02:13;;;;;;;3.97;1.17;;;;;;;9.58;92.45;93014.50;6125590;23;20813;-85
2023/11/03 05:04:39;;;;;;;3.13;1.20;;;;;;;9.57;91.14;93002.66;6124731;23;20206;-86
2023/11/03 05:07:07;;;;;;;2.50;1.33;;;;;;;9.55;90.69;92992.63;6123949;23;20179;-86
2023/11/03 05:09:37;;;;;;;2.30;1.10;;;;;;;9.54;90.42;92995.41;6123743;23;20180;-86
2023/11/03 05:12:04;;;;;;;2.80;1.10;;;;;;;9.56;91.22;93016.50;6124739;23;20199;-87
2023/11/03 05:14:30;;;;;;;2.43;1.40;;;;;;;9.55;90.55;93005.47;6124268;23;20183;-87
2023/11/03 05:16:57;;;;;;;1.73;1.10;;;;;;;9.59;90.45;93008.34;6124611;23;20183;-85
2023/11/03 05:19:24;;;;;;;1.87;1.30;;;;;;;9.58;89.59;93001.66;6124312;23;20183;-85
2023/11/03 05:21:52;;;;;;;4.17;1.27;;;;;;;9.56;88.77;92983.91;6124013;23;20749;-86
2023/11/03 05:24:18;;;;;;;1.70;1.10;;;;;;;9.51;88.10;92970.19;6123867;23;20203;-86
2023/11/03 05:26:46;;;;;;;1.97;0.97;;;;;;;9.54;87.95;92962.81;6124778;23;20181;-86
2023/11/03 05:29:14;;;;;;;2.20;1.17;;;;;;;9.56;88.77;92980.56;6124409;23;20179;-87
2023/11/03 05:31:40;;;;;;;2.63;1.10;;;;;;;9.60;88.82;92990.13;6123802;23;20235;-86
2023/11/03 05:34:06;;;;;;;2.80;1.33;;;;;;;9.64;89.23;93006.63;6124543;23;20183;-86
2023/11/03 05:36:36;;;;;;;2.00;1.10;;;;;;;9.64;89.41;93006.63;6123523;23;20175;-87
2023/11/03 05:39:03;;;;;;;2.97;1.30;;;;;;;9.68;89.71;93005.16;6124744;23;20176;-88
2023/11/03 05:41:30;;;;;;;3.03;1.30;;;;;;;9.72;88.82;92997.75;6123787;23;20282;-85
2023/11/03 05:43:57;;;;;;;3.40;1.17;;;;;;;9.71;89.06;92991.06;6124428;23;20176;-88
2023/11/03 05:46:24;;;;;;;2.77;1.37;;;;;;;9.68;90.23;93007.72;6124311;23;20175;-85
2023/11/03 05:48:52;;;;;;;2.03;1.20;;;;;;;9.65;90.84;93018.44;6124263;23;20519;-85
2023/11/03 05:51:21;;;;;;;2.90;1.10;;;;;;;9.55;91.89;93046.56;6123913;23;20252;-86
2023/11/03 05:53:49;;;;;;;1.60;1.00;;;;;;;9.59;89.84;93019.41;6124805;23;20222;-86
2023/11/03 05:56:15;;;;;;;3.07;1.50;;;;;;;9.56;90.04;93016.50;6123306;23;20247;-86
2023/11/03 05:58:42;;;;;;;1.97;1.10;;;;;;;9.54;89.98;93014.19;6124651;23;20175;-86
2023/11/03 06:01:11;;;;;;;2.17;1.17;;;;;;;9.52;90.53;93029.03;6123767;23;20509;-85
2023/11/03 06:03:40;;;;;;;7.30;1.30;;;;;;;9.51;90.04;93022.34;6124506;23;20577;-86
2023/11/03 06:06:09;;;;;;;2.97;1.20;;;;;;;9.50;90.59;93025.16;6124359;23;20553;-85
2023/11/03 06:08:35;;;;;;;4.90;1.30;;;;;;;9.52;89.36;93011.06;6123844;23;20203;-87
2023/11/03 06:11:02;;;;;;;3.67;1.40;;;;;;;9.49;90.90;93042.34;6123572;23;20530;-86
2023/11/03 06:13:28;;;;;;;4.13;1.10;;;;;;;9.47;90.59;93034.09;6123393;23;20190;-86
2023/11/03 06:15:55;;;;;;;2.93;1.33;;;;;;;9.46;90.80;93029.97;6124408;23;20199;-86
2023/11/03 06:18:22;;;;;;;3.97;1.30;;;;;;;9.49;91.09;93033.84;6123683;23;20186;-86
2023/11/03 06:20:49;;;;;;;1.67;0.93;;;;;;;9.52;90.32;93025.69;6124005;23;20195;-86
2023/11/03 06:23:17;;;;;;;1.07;0.87;;;;;;;9.46;90.51;93024.81;6124255;23;20176;-86
2023/11/03 06:25:44;;;;;;;2.37;0.93;;;;;;;9.50;90.05;93037.97;6122625;23;20199;-87
2023/11/03 06:28:13;;;;;;;2.77;1.20;;;;;;;9.48;89.89;93040.00;6123852;23;20227;-85
2023/11/03 06:31:10;;;;;;;3.90;1.97;;;;;;;9.49;90.04;93047.47;6121074;23;20179;-86
2023/11/03 06:34:07;;;;;;;;;;;;;;;;;;;;;
2023/11/03 06:40:16;;;;;;;;;;;;;;;;;;;;;
2023/11/03 06:42:45;;;;;;;4.70;1.50;;;;;;;9.57;89.01;93041.19;6004840;23;20200;-86
2023/11/03 06:45:25;;;;;;;2.80;1.50;;;;;;;9.57;88.78;93039.41;6124550;23;20219;-86
2023/11/03 06:48:02;;;;;;;5.90;1.30;;;;;;;9.55;89.37;93046.56;6125910;23;20195;-85
2023/11/03 06:50:42;;;;;;;1.83;1.30;;;;;;;9.59;88.45;93039.16;6125184;23;20203;-85
2023/11/03 06:53:37;;;;;;;2.47;1.00;;;;;;;9.57;88.15;93038.63;6126034;23;20163;-87
2023/11/03 06:56:12;;;;;;;1.70;1.20;;;;;;;9.59;88.62;93049.44;6115989;23;20200;-86
2023/11/03 06:58:44;;;;;;;1.73;1.30;;;;;;;9.61;88.18;93060.28;6127926;23;20167;-86
2023/11/03 07:01:21;;;;;;;1.53;1.30;;;;;;;9.59;87.96;93057.94;6125922;23;20192;-87
2023/11/03 07:03:52;;;;;;;2.63;1.40;;;;;;;9.55;88.25;93069.66;6126024;23;20655;-86
2023/11/03 07:06:31;;;;;;;4.60;1.43;;;;;;;9.54;87.24;93047.56;6125393;23;20258;-85
2023/11/03 07:09:10;;;;;;;1.30;1.20;;;;;;;9.51;87.32;93034.41;6124526;23;20215;-85
2023/11/03 07:11:36;;;;;;;7.40;6.07;;;;;;;9.49;87.74;93044.13;6125120;23;20202;-85
2023/11/03 07:14:11;;;;;;;4.53;3.23;;;;;;;9.47;88.62;93064.13;6123919;23;20190;-86
2023/11/03 07:16:43;;;;;;;3.70;1.83;;;;;;;9.48;88.87;93065.69;6124563;23;20186;-86
2023/11/03 07:19:13;;;;;;;2.87;1.60;;;;;;;9.46;89.47;93067.69;6124213;23;20559;-85
2023/11/03 07:21:44;;;;;;;3.73;1.50;;;;;;;9.44;88.74;93056.88;6125299;23;20571;-86
2023/11/03 07:24:21;;;;;;;3.30;1.70;;;;;;;9.47;88.75;93053.84;6125250;23;20235;-88
2023/11/03 07:26:50;;;;;;;3.97;1.40;;;;;;;9.47;89.94;93080.31;6124698;23;20457;-86
2023/11/03 07:29:17;;;;;;;4.17;1.23;;;;;;;9.48;89.32;93076.72;6128859;23;20175;-85
2023/11/03 07:31:44;;;;;;;4.63;1.30;;;;;;;9.49;88.65;93064.66;6136799;23;20737;-86
2023/11/03 07:34:13;;;;;;;5.80;1.53;;;;;;;9.50;89.47;93072.16;6127969;23;20179;-88
2023/11/03 07:36:42;;;;;;;3.70;1.80;;;;;;;9.51;89.01;93068.56;6137077;23;20226;-87
2023/11/03 07:39:11;;;;;;;1.90;1.10;;;;;;;9.45;87.86;93043.81;6133491;23;20180;-87
2023/11/03 07:41:38;;;;;;;5.47;1.30;;;;;;;9.46;88.55;93060.00;6134968;23;20201;-87
2023/11/03 07:44:16;;;;;;;2.67;1.10;;;;;;;9.38;89.07;93068.88;6129344;23;20179;-87
2023/11/03 07:46:49;;;;;;;3.07;1.40;;;;;;;9.37;89.85;93090.41;6125767;23;20258;-86
2023/11/03 07:49:49;;;;;;;3.87;1.50;;;;;;;9.38;89.41;93094.53;6127085;23;20182;-87
2023/11/03 07:52:22;;;;;;;3.07;1.23;;;;;;;9.39;89.01;93087.63;6125527;23;20247;-86
2023/11/03 07:55:01;;;;;;;1.87;1.10;;;;;;;9.44;88.23;93085.13;6125674;23;20163;-85
2023/11/03 07:57:34;;;;;;;1.67;1.30;;;;;;;9.40;89.45;93118.22;6126562;23;20178;-86
2023/11/03 08:00:05;;;;;;;4.03;1.80;;;;;;;9.37;88.46;93100.69;6125533;23;20172;-86
2023/11/03 08:02:34;;;;;;;4.47;2.00;;;;;;;9.40;89.29;93113.06;6127675;23;20530;-87
2023/11/03 08:05:00;;;;;;;3.37;1.40;;;;;;;9.44;89.94;93131.34;6126888;23;20195;-87
2023/11/03 08:07:28;;;;;;;4.40;1.17;;;;;;;9.49;88.04;93098.06;6124396;23;20176;-87
2023/11/03 08:10:14;;;;;;;1.50;1.20;;;;;;;9.43;87.96;93099.75;6125105;23;20186;-87
2023/11/03 08:12:40;;;;;;;3.37;1.40;;;;;;;9.41;88.49;93119.78;6124656;23;20258;-87
2023/11/03 08:15:10;;;;;;;1.47;1.23;;;;;;;9.42;88.56;93123.91;6124875;23;20164;-86
2023/11/03 08:17:37;;;;;;;2.60;1.50;;;;;;;9.53;88.17;93117.13;6124700;23;20172;-86
2023/11/03 08:20:05;;;;;;;1.90;1.03;;;;;;;9.54;87.67;93111.00;6125448;23;20203;-87
2023/11/03 08:22:40;;;;;;;1.47;1.10;;;;;;;9.56;87.23;93101.28;6125349;23;20200;-87
2023/11/03 08:25:09;;;;;;;3.00;1.30;;;;;;;9.49;87.74;93116.03;6125612;23;20202;-87
2023/11/03 08:27:37;;;;;;;3.13;2.00;;;;;;;9.46;86.95;93111.34;6125370;23;20210;-88
2023/11/03 08:30:06;;;;;;;4.37;3.37;;;;;;;9.46;87.07;93119.06;6126836;23;20265;-86
2023/11/03 08:32:34;;;;;;;1.47;1.33;;;;;;;9.45;87.75;93120.06;6126058;23;20536;-87
2023/11/03 08:35:10;;;;;;;2.53;1.50;;;;;;;9.53;88.45;93135.91;6128587;23;20202;-88
2023/11/03 08:37:36;;;;;;;1.27;1.17;;;;;;;9.52;87.95;93125.84;6128917;23;20213;-87
2023/11/03 08:40:04;;;;;;;2.53;1.10;;;;;;;9.46;88.46;93148.09;6128557;23;20180;-86
2023/11/03 08:42:47;;;;;;;2.10;1.10;;;;;;;9.50;87.99;93133.78;6125599;23;20210;-87
2023/11/03 08:45:22;;;;;;;1.63;1.40;;;;;;;9.51;88.05;93148.19;6127565;23;20263;-88
2023/11/03 08:47:48;;;;;;;2.60;1.10;;;;;;;9.49;89.46;93169.97;6127502;23;20164;-87
2023/11/03 08:50:19;;;;;;;2.37;1.10;;;;;;;9.50;89.34;93177.44;6127015;23;20261;-88
2023/11/03 08:52:47;;;;;;;2.53;1.57;;;;;;;9.57;90.16;93188.38;6126909;23;20231;-87
2023/11/03 08:55:14;;;;;;;4.47;1.40;;;;;;;9.65;90.17;93192.34;6127320;23;20227;-87
2023/11/03 08:57:43;;;;;;;1.80;1.23;;;;;;;9.68;88.27;93148.22;6130578;23;20180;-87
2023/11/03 09:00:15;;;;;;;3.83;1.53;;;;;;;9.50;86.49;93110.66;6132536;23;20187;-87
2023/11/03 09:02:44;;;;;;;2.30;1.40;;;;;;;9.50;88.76;93151.75;6130753;23;20206;-87
2023/11/03 09:05:11;;;;;;;25.53;22.83;;;;;;;9.54;90.19;93181.13;6126533;23;20229;-87
2023/11/03 09:07:39;;;;;;;4.97;3.80;;;;;;;9.59;88.75;93167.59;6127228;23;20179;-87
2023/11/03 09:10:07;;;;;;;2.97;1.40;;;;;;;9.65;87.53;93156.38;6125541;23;20176;-87
2023/11/03 09:12:33;;;;;;;4.20;1.20;;;;;;;9.68;87.23;93149.00;6127007;23;20200;-88
2023/11/03 09:15:03;;;;;;;2.60;1.50;;;;;;;9.72;86.02;93117.72;6126065;23;20234;-87
2023/11/03 09:17:31;;;;;;;6.53;1.80;;;;;;;9.71;85.75;93111.81;6126390;23;20164;-87
2023/11/03 09:19:58;;;;;;;2.03;1.30;;;;;;;9.74;86.41;93131.91;6126605;23;20242;-87
2023/11/03 09:22:27;;;;;;;2.10;1.40;;;;;;;9.77;86.83;93144.28;6125951;23;20195;-87
2023/11/03 09:24:56;;;;;;;2.33;1.20;;;;;;;9.78;86.53;93145.84;6126687;23;20784;-88
2023/11/03 09:27:26;;;;;;;3.00;1.40;;;;;;;9.79;85.06;93114.00;6125692;23;20526;-87
2023/11/03 09:29:53;;;;;;;2.00;1.23;;;;;;;9.84;85.14;93106.34;6124845;23;20210;-87
2023/11/03 09:32:20;;;;;;;3.13;1.50;;;;;;;9.77;83.66;93076.69;6126080;23;20231;-87
2023/11/03 09:34:47;;;;;;;2.10;1.33;;;;;;;9.76;83.43;93078.50;6126297;23;20194;-86
2023/11/03 09:37:17;;;;;;;3.33;1.23;;;;;;;9.73;84.26;93104.66;6126002;23;20172;-85
2023/11/03 09:39:43;;;;;;;3.53;1.10;;;;;;;9.67;82.77;93061.88;6125978;23;20260;-87
2023/11/03 09:42:12;;;;;;;4.67;1.40;;;;;;;9.76;82.92;93077.72;6126019;23;20214;-86
2023/11/03 09:44:39;;;;;;;2.80;1.30;;;;;;;9.77;82.84;93084.41;6126102;23;20179;-86
2023/11/03 09:47:06;;;;;;;2.33;1.20;;;;;;;9.81;83.37;93098.34;6127298;23;20683;-86
2023/11/03 09:49:36;;;;;;;3.10;1.33;;;;;;;9.81;83.16;93088.84;6126324;23;20172;-86
2023/11/03 09:52:04;;;;;;;5.27;1.87;;;;;;;9.90;82.38;93086.66;6126296;23;20200;-87
2023/11/03 09:54:32;;;;;;;10.10;2.80;;;;;;;9.89;83.85;93114.16;6127427;23;20535;-85
2023/11/03 09:57:01;;;;;;;12.77;5.07;;;;;;;9.82;83.96;93123.78;6126705;23;20180;-85
2023/11/03 09:59:30;;;;;;;5.60;3.67;;;;;;;9.78;83.25;93099.59;6125530;23;20175;-86
2023/11/03 10:01:57;;;;;;;5.60;2.67;;;;;;;9.87;83.18;93103.31;6125975;23;20210;-86
2023/11/03 10:04:24;;;;;;;4.37;1.83;;;;;;;9.83;81.69;93066.25;6126227;23;20672;-85
2023/11/03 10:06:52;;;;;;;4.23;1.40;;;;;;;9.84;82.16;93074.75;6126346;23;20200;-86
2023/11/03 10:09:20;;;;;;;3.23;1.60;;;;;;;9.95;82.50;93074.69;6126779;23;20209;-86
2023/11/03 10:11:47;;;;;;;1.90;1.50;;;;;;;9.99;82.61;93083.50;6125567;23;20196;-86
2023/11/03 10:14:13;;;;;;;1.60;1.30;;;;;;;9.90;83.56;93102.09;6126476;23;20825;-86
2023/11/03 10:16:41;;;;;;;2.43;1.30;;;;;;;9.93;83.58;93088.78;6131230;23;20187;-86
2023/11/03 10:19:08;;;;;;;7.43;1.63;;;;;;;9.95;83.20;93092.69;6136058;23;20551;-87
2023/11/03 10:21:35;;;;;;;2.57;1.70;;;;;;;9.89;81.79;93056.84;6130642;23;20188;-87
2023/11/03 10:24:03;;;;;;;2.87;1.50;;;;;;;9.83;81.90;93047.50;6136455;23;20175;-87
2023/11/03 10:26:29;;;;;;;3.73;1.30;;;;;;;9.65;80.82;93018.44;6128508;23;20195;-87
2023/11/03 10:28:56;;;;;;;3.33;1.50;;;;;;;9.59;80.97;93021.97;6131297;23;20179;-86
2023/11/03 10:31:25;;;;;;;4.60;1.63;;;;;;;9.58;81.68;93038.41;6132227;23;20200;-86
2023/11/03 10:33:54;;;;;;;2.10;1.40;;;;;;;9.68;81.63;93045.47;6134439;23;20227;-86
2023/11/03 10:36:21;;;;;;;2.83;1.50;;;;;;;9.73;82.55;93070.47;6135791;23;20500;-85
2023/11/03 10:38:48;;;;;;;3.50;1.50;;;;;;;9.74;82.74;93083.09;6131405;23;20530;-88
2023/11/03 10:41:17;;;;;;;1.67;1.33;;;;;;;9.78;83.24;93086.75;6130944;23;20200;-87
2023/11/03 10:43:46;;;;;;;3.17;1.37;;;;;;;9.75;82.88;93078.72;6131855;23;20183;-86
2023/11/03 10:46:18;;;;;;;2.00;1.10;;;;;;;9.72;83.20;93089.47;6133452;23;20699;-87
2023/11/03 10:48:46;;;;;;;3.60;1.73;;;;;;;9.64;83.67;93099.09;6132325;23;20160;-86
2023/11/03 10:51:18;;;;;;;4.60;1.70;;;;;;;9.66;84.25;93112.47;6134117;23;20226;-87
2023/11/03 10:53:51;;;;;;;3.53;1.50;;;;;;;9.63;85.50;93136.06;6132445;23;20169;-85
2023/11/03 10:56:19;;;;;;;4.03;1.50;;;;;;;9.57;88.05;93182.47;6132235;23;20156;-87
2023/11/03 10:58:46;;;;;;;4.20;1.90;;;;;;;9.47;86.08;93141.16;6130890;23;20180;-87
2023/11/03 11:01:20;;;;;;;6.30;4.40;;;;;;;9.52;85.93;93144.59;6128850;23;20206;-87
2023/11/03 11:03:53;;;;;;;5.40;4.23;;;;;;;9.56;87.64;93168.84;6132762;23;20568;-86
2023/11/03 11:06:24;;;;;;;2.57;1.67;;;;;;;9.64;87.72;93180.50;6129910;23;20564;-87
2023/11/03 11:08:57;;;;;;;3.90;1.60;;;;;;;9.75;88.12;93184.84;6127115;23;20514;-87
2023/11/03 11:11:27;;;;;;;5.03;1.77;;;;;;;9.72;89.54;93202.50;6127412;23;20199;-87
2023/11/03 11:13:54;;;;;;;5.67;1.50;;;;;;;9.66;89.79;93207.53;6126769;23;20187;-86
2023/11/03 11:16:20;;;;;;;3.77;1.70;;;;;;;9.66;90.02;93219.59;6125547;23;20187;-85
2023/11/03 11:18:53;;;;;;;2.13;1.50;;;;;;;9.62;90.67;93221.09;6125612;23;20179;-85
2023/11/03 11:21:29;;;;;;;3.47;1.43;;;;;;;9.49;89.10;93200.78;6124420;23;20588;-85
2023/11/03 11:23:56;;;;;;;3.23;1.90;;;;;;;9.50;90.43;93228.03;6125853;23;20611;-86
2023/11/03 11:26:26;;;;;;;4.50;1.87;;;;;;;9.48;90.97;93228.25;6124525;23;20531;-85
2023/11/03 11:28:53;;;;;;;2.70;1.43;;;;;;;9.30;90.30;93228.41;6125675;23;20164;-87
2023/11/03 11:31:43;;;;;;;4.67;1.67;;;;;;;9.23;91.12;93245.75;6124416;23;20199;-87
2023/11/03 11:34:12;;;;;;;2.90;1.30;;;;;;;9.20;91.90;93261.59;6127147;23;20168;-86
2023/11/03 11:36:40;;;;;;;2.20;1.27;;;;;;;9.19;90.60;93247.19;6123742;23;20176;-86
2023/11/03 11:39:16;;;;;;;1.80;1.30;;;;;;;9.20;90.05;93238.47;6123986;23;20175;-86
2023/11/03 11:41:51;;;;;;;1.70;1.17;;;;;;;9.04;89.50;93227.13;6125619;23;20274;-87
2023/11/03 11:44:20;;;;;;;2.63;1.40;;;;;;;9.04;90.29;93244.31;6126421;23;20214;-86
2023/11/03 11:46:51;;;;;;;3.40;1.57;;;;;;;8.99;90.12;93247.53;6124230;23;20191;-85
2023/11/03 11:49:21;;;;;;;2.47;1.30;;;;;;;9.05;90.79;93264.59;6124395;23;20243;-87
2023/11/03 11:51:52;;;;;;;3.93;1.40;;;;;;;8.90;91.14;93266.81;6123698;23;20231;-86
2023/11/03 11:54:19;;;;;;;3.40;1.30;;;;;;;8.86;90.66;93253.66;6123774;23;20175;-86
2023/11/03 11:56:48;;;;;;;3.33;1.37;;;;;;;8.77;91.24;93265.25;6123185;23;20181;-86
2023/11/03 11:59:17;;;;;;;2.33;1.27;;;;;;;8.69;93.98;93309.19;6123452;23;20359;-86
2023/11/03 12:01:44;;;;;;;3.30;1.40;;;;;;;8.80;94.82;93328.19;6122926;23;20196;-86
2023/11/03 12:04:11;;;;;;;3.40;1.40;;;;;;;8.82;96.47;93344.13;6123149;23;20179;-86
2023/11/03 12:06:48;;;;;;;7.87;6.43;;;;;;;8.88;95.47;93335.53;6123051;23;20195;-86
2023/11/03 12:09:15;;;;;;;6.13;4.73;;;;;;;8.86;95.31;93334.97;6123435;23;20522;-86
2023/11/03 12:11:44;;;;;;;2.80;1.63;;;;;;;8.86;94.06;93315.22;6125435;23;20230;-85
2023/11/03 12:14:16;;;;;;;3.37;1.83;;;;;;;8.88;94.48;93320.13;6124600;23;20239;-86
2023/11/03 12:16:45;;;;;;;3.30;1.73;;;;;;;8.84;93.60;93303.66;6124553;23;20167;-86
2023/11/03 12:19:23;;;;;;;3.37;1.37;;;;;;;8.94;94.64;93316.69;6124936;23;20701;-86
2023/11/03 12:21:58;;;;;;;3.20;1.70;;;;;;;8.97;94.04;93311.91;6124866;23;20211;-87
2023/11/03 12:24:25;;;;;;;4.73;1.50;;;;;;;9.09;93.59;93300.84;6128271;23;20262;-86
2023/11/03 12:27:00;;;;;;;2.20;1.40;;;;;;;9.09;92.31;93286.25;6125766;23;20200;-86
2023/11/03 12:32:36;;;;;;;2.20;1.33;;;;;;;9.13;92.02;93279.66;6124830;23;20191;-86
2023/11/03 12:35:12;;;;;;;4.30;1.40;;;;;;;9.21;91.81;93279.34;6124513;23;20179;-86
2023/11/03 12:37:50;;;;;;;3.30;1.43;;;;;;;9.35;92.71;93292.72;6124849;23;20160;-85